Time;durP1;ratioP1;P1;durP2;ratioP2;P2;SDS_P1;SDS_P2;PMS_P1;PMS_P2;Temp;Humidity;BMP_temperature;BMP_pressure;BME280_temperature;BME280_humidity;BME280_pressure;Samples;Min_cycle;Max_cycle;Signal;HPM_P1;HPM_P2
2023/07/06 00:10:40;;;;;;;8.8;5.1;;;;;;;17.65;87.15;;;;;
2023/07/06 00:21:40;;;;;;;8.8;5.1;;;;;;;17.57;86.9;;;;;
2023/07/06 00:32:41;;;;;;;10.8;5.7;;;;;;;17.45;87.42;;;;;
2023/07/06 00:43:40;;;;;;;10.8;5.7;;;;;;;17.32;87.82;;;;;
2023/07/06 00:53:41;;;;;;;10.8;5.7;;;;;;;17.25;88.43;;;;;
2023/07/06 01:04:41;;;;;;;10.8;4.8;;;;;;;17.13;89.16;;;;;
2023/07/06 01:15:41;;;;;;;10.8;4.8;;;;;;;17.19;88.65;;;;;
2023/07/06 01:26:40;;;;;;;11.3;5.2;;;;;;;17.19;88.12;;;;;
2023/07/06 01:36:40;;;;;;;11.3;5.2;;;;;;;17.19;87.67;;;;;
2023/07/06 01:46:40;;;;;;;11.3;5.2;;;;;;;17.1;87.3;;;;;
2023/07/06 01:56:41;;;;;;;7.7;3.8;;;;;;;17.06;87.28;;;;;
2023/07/06 02:06:41;;;;;;;7.7;3.8;;;;;;;17.06;87.05;;;;;
2023/07/06 02:16:41;;;;;;;7.7;3.8;;;;;;;16.96;87.33;;;;;
2023/07/06 02:27:40;;;;;;;8.3;5;;;;;;;16.81;88.47;;;;;
2023/07/06 02:37:41;;;;;;;8.3;5;;;;;;;16.67;89.29;;;;;
2023/07/06 02:47:44;;;;;;;8.3;5;;;;;;;16.68;89.12;;;;;
2023/07/06 02:57:44;;;;;;;12;5.5;;;;;;;16.59;88.89;;;;;
2023/07/06 03:08:44;;;;;;;12;5.5;;;;;;;16.45;89.35;;;;;
2023/07/06 03:18:44;;;;;;;12;5.5;;;;;;;16.44;89.2;;;;;
2023/07/06 03:29:44;;;;;;;10.7;5.2;;;;;;;16.39;89.42;;;;;
2023/07/06 03:39:47;;;;;;;10.7;5.2;;;;;;;16.4;89.1;;;;;
2023/07/06 03:50:44;;;;;;;10.7;5.2;;;;;;;16.57;88.32;;;;;
2023/07/06 04:01:44;;;;;;;9.3;4.7;;;;;;;16.75;87.97;;;;;
2023/07/06 04:12:44;;;;;;;9.3;4.7;;;;;;;17.03;86.81;;;;;
2023/07/06 04:22:44;;;;;;;9.3;4.7;;;;;;;17.35;86.31;;;;;
2023/07/06 04:32:44;;;;;;;9.2;5;;;;;;;17.67;85.22;;;;;
2023/07/06 04:42:45;;;;;;;9.2;5;;;;;;;17.88;83.32;;;;;
2023/07/06 04:52:45;;;;;;;9.2;5;;;;;;;18.03;82.73;;;;;
2023/07/06 05:02:45;;;;;;;13.4;6;;;;;;;18.32;81.58;;;;;
2023/07/06 05:13:44;;;;;;;13.4;6;;;;;;;18.78;81.16;;;;;
2023/07/06 05:23:44;;;;;;;13.4;6;;;;;;;18.92;79.56;;;;;
2023/07/06 05:34:45;;;;;;;9.4;5.8;;;;;;;19.18;79.53;;;;;
2023/07/06 05:45:44;;;;;;;9.4;5.8;;;;;;;19.28;77.82;;;;;
2023/07/06 05:55:44;;;;;;;9.4;5.8;;;;;;;19.46;78.41;;;;;
2023/07/06 06:05:45;;;;;;;9.2;5.5;;;;;;;19.31;76.15;;;;;
2023/07/06 06:16:44;;;;;;;9.2;5.5;;;;;;;19.2;75.91;;;;;
2023/07/06 06:26:44;;;;;;;9.5;4.9;;;;;;;19.55;74.53;;;;;
2023/07/06 06:36:44;;;;;;;9.5;4.9;;;;;;;19.46;73.84;;;;;
2023/07/06 06:46:45;;;;;;;9.5;4.9;;;;;;;19.34;74.5;;;;;
2023/07/06 06:57:44;;;;;;;9.1;4.6;;;;;;;19.3;75.04;;;;;
2023/07/06 07:07:44;;;;;;;9.1;4.6;;;;;;;19.31;73.72;;;;;
2023/07/06 07:18:44;;;;;;;9.1;4.6;;;;;;;18.96;73.18;;;;;
2023/07/06 07:28:45;;;;;;;9.7;4.7;;;;;;;18.84;73.22;;;;;
2023/07/06 07:38:44;;;;;;;9.7;4.7;;;;;;;18.97;75.02;;;;;
2023/07/06 07:49:44;;;;;;;9.7;4.7;;;;;;;19.12;73.4;;;;;
2023/07/06 07:59:44;;;;;;;10;6.6;;;;;;;19.44;72.24;;;;;
2023/07/06 08:09:44;;;;;;;10;6.6;;;;;;;19.62;72.83;;;;;
2023/07/06 08:19:45;;;;;;;10;6.6;;;;;;;19.65;71.31;;;;;
2023/07/06 08:30:44;;;;;;;9.3;4.9;;;;;;;19.79;71.16;;;;;
2023/07/06 08:41:44;;;;;;;9.3;4.9;;;;;;;20.44;72.98;;;;;
2023/07/06 08:51:44;;;;;;;9.3;4.9;;;;;;;21.01;67.94;;;;;
2023/07/06 09:02:45;;;;;;;8.1;4.6;;;;;;;22.06;64.93;;;;;
2023/07/06 09:12:44;;;;;;;8.1;4.6;;;;;;;22.84;59.95;;;;;
2023/07/06 09:23:44;;;;;;;8.1;4.6;;;;;;;23.4;58.55;;;;;
2023/07/06 09:34:45;;;;;;;12.9;4.7;;;;;;;23.93;53.79;;;;;
2023/07/06 09:44:44;;;;;;;12.9;4.7;;;;;;;24.19;53.59;;;;;
2023/07/06 09:54:45;;;;;;;12.9;4.7;;;;;;;24.36;52.1;;;;;
2023/07/06 10:05:44;;;;;;;8.9;3.5;;;;;;;25.15;44.84;;;;;
2023/07/06 10:15:45;;;;;;;8.9;3.5;;;;;;;25.24;46.53;;;;;
2023/07/06 10:25:46;;;;;;;8.9;3.5;;;;;;;25.42;47.19;;;;;
2023/07/06 10:35:46;;;;;;;8.6;3.2;;;;;;;25.55;50.61;;;;;
2023/07/06 10:46:44;;;;;;;8.6;3.2;;;;;;;24.9;49.39;;;;;
2023/07/06 10:57:47;;;;;;;8.2;3.5;;;;;;;24.28;48.24;;;;;
2023/07/06 11:07:45;;;;;;;8.2;3.5;;;;;;;23.85;50.04;;;;;
2023/07/06 11:17:48;;;;;;;8.2;3.5;;;;;;;23.73;49.41;;;;;
2023/07/06 11:28:44;;;;;;;11.3;4.2;;;;;;;24.09;51.86;;;;;
2023/07/06 11:39:44;;;;;;;11.3;4.2;;;;;;;24.24;52.09;;;;;
2023/07/06 11:49:44;;;;;;;11.3;4.2;;;;;;;23.95;51.79;;;;;
2023/07/06 11:59:52;;;;;;;8.6;4.5;;;;;;;23.49;51.46;;;;;
2023/07/06 12:09:44;;;;;;;8.6;4.5;;;;;;;22.89;51.62;;;;;
2023/07/06 12:19:44;;;;;;;8.6;4.5;;;;;;;22.43;53.52;;;;;
2023/07/06 12:29:45;;;;;;;7.6;3.7;;;;;;;22.72;52.83;;;;;
2023/07/06 12:39:44;;;;;;;7.6;3.7;;;;;;;22.5;53.74;;;;;
2023/07/06 12:49:44;;;;;;;7.6;3.7;;;;;;;22.7;55.34;;;;;
2023/07/06 13:00:44;;;;;;;6.9;3.7;;;;;;;22.62;53.89;;;;;
2023/07/06 13:10:45;;;;;;;6.9;3.7;;;;;;;22.93;54.87;;;;;
2023/07/06 13:20:44;;;;;;;6.9;3.7;;;;;;;22.89;51.58;;;;;
2023/07/06 13:30:45;;;;;;;8;3.5;;;;;;;23.01;51.37;;;;;
2023/07/06 13:40:46;;;;;;;8;3.5;;;;;;;23.22;52.47;;;;;
2023/07/06 13:51:44;;;;;;;8;3.5;;;;;;;23.15;53.83;;;;;
2023/07/06 14:01:45;;;;;;;8.3;4;;;;;;;23.98;52.13;;;;;
2023/07/06 14:11:46;;;;;;;8.3;4;;;;;;;24.13;52.31;;;;;
2023/07/06 14:21:45;;;;;;;8.3;4;;;;;;;24.79;49.87;;;;;
2023/07/06 14:31:46;;;;;;;7;3.7;;;;;;;25.25;46.57;;;;;
2023/07/06 14:41:44;;;;;;;7;3.7;;;;;;;24.99;48.24;;;;;
2023/07/06 14:52:45;;;;;;;7;3.7;;;;;;;25.14;47.27;;;;;
2023/07/06 15:02:46;;;;;;;9.5;4;;;;;;;25.55;46.83;;;;;
2023/07/06 15:12:44;;;;;;;9.5;4;;;;;;;24.7;48.47;;;;;
2023/07/06 15:23:44;;;;;;;9.5;4;;;;;;;24.63;48.11;;;;;
2023/07/06 15:33:44;;;;;;;12.8;3.9;;;;;;;24.59;47.27;;;;;
2023/07/06 15:43:44;;;;;;;12.8;3.9;;;;;;;25.31;48.37;;;;;
2023/07/06 15:53:44;;;;;;;12.8;3.9;;;;;;;25.45;45.17;;;;;
2023/07/06 16:04:44;;;;;;;8.4;4.1;;;;;;;26.05;43.56;;;;;
2023/07/06 16:14:44;;;;;;;8.4;4.1;;;;;;;27.43;45.03;;;;;
2023/07/06 16:25:44;;;;;;;8.4;4.1;;;;;;;30.84;39.41;;;;;
2023/07/06 16:36:44;;;;;;;9.2;3.2;;;;;;;31.33;36.49;;;;;
2023/07/06 16:47:44;;;;;;;9.2;3.2;;;;;;;31.2;35.58;;;;;
2023/07/06 16:57:46;;;;;;;10.2;4.4;;;;;;;31.79;35.18;;;;;
2023/07/06 17:08:44;;;;;;;10.2;4.4;;;;;;;30.49;37.34;;;;;
2023/07/06 17:19:44;;;;;;;10.2;4.4;;;;;;;28.02;41.04;;;;;
2023/07/06 17:30:44;;;;;;;8.9;4.8;;;;;;;26.06;44.55;;;;;
2023/07/06 17:41:44;;;;;;;8.9;4.8;;;;;;;27.34;45.67;;;;;
2023/07/06 17:51:44;;;;;;;8.9;4.8;;;;;;;28.74;42.85;;;;;
2023/07/06 18:02:44;;;;;;;7.1;3.7;;;;;;;29.07;40.84;;;;;
2023/07/06 18:13:44;;;;;;;7.1;3.7;;;;;;;26.49;45.35;;;;;
2023/07/06 18:23:44;;;;;;;7.1;3.7;;;;;;;24.33;49.62;;;;;
2023/07/06 18:33:44;;;;;;;10.3;4.6;;;;;;;22.76;55;;;;;
2023/07/06 18:44:44;;;;;;;10.3;4.6;;;;;;;21.2;60.3;;;;;
2023/07/06 18:54:44;;;;;;;10.3;4.6;;;;;;;20.15;63.34;;;;;
2023/07/06 19:04:44;;;;;;;8.5;4.8;;;;;;;19.24;67.36;;;;;
2023/07/06 19:14:44;;;;;;;8.5;4.8;;;;;;;18.51;67.79;;;;;
2023/07/06 19:25:44;;;;;;;8.5;4.8;;;;;;;17.8;69.92;;;;;
2023/07/06 19:36:44;;;;;;;12.6;7.5;;;;;;;17.26;73.5;;;;;
2023/07/06 19:46:44;;;;;;;12.6;7.5;;;;;;;16.75;73.39;;;;;
2023/07/06 19:57:44;;;;;;;13.2;8.9;;;;;;;16.4;75.02;;;;;
2023/07/06 20:08:44;;;;;;;13.2;8.9;;;;;;;16.15;75.07;;;;;
2023/07/06 20:18:45;;;;;;;13.2;8.9;;;;;;;15.9;76.11;;;;;
2023/07/06 20:28:44;;;;;;;20.1;14.3;;;;;;;15.6;79.42;;;;;
2023/07/06 20:38:44;;;;;;;20.1;14.3;;;;;;;15.41;77.46;;;;;
2023/07/06 20:49:47;;;;;;;20.1;14.3;;;;;;;15.18;78.6;;;;;
2023/07/06 21:00:44;;;;;;;10.8;7;;;;;;;14.92;78.81;;;;;
2023/07/06 21:11:44;;;;;;;10.8;7;;;;;;;14.67;79.26;;;;;
2023/07/06 21:21:44;;;;;;;10.8;7;;;;;;;14.48;80.24;;;;;
2023/07/06 21:31:44;;;;;;;9.4;5.9;;;;;;;14.21;80.47;;;;;
2023/07/06 21:41:44;;;;;;;9.4;5.9;;;;;;;14.01;80.73;;;;;
2023/07/06 21:51:45;;;;;;;9.4;5.9;;;;;;;13.84;82.94;;;;;
2023/07/06 22:02:45;;;;;;;9.4;5.9;;;;;;;13.74;83.17;;;;;
2023/07/06 22:12:44;;;;;;;9.4;5.9;;;;;;;13.7;84.12;;;;;
2023/07/06 22:22:45;;;;;;;9.4;5.9;;;;;;;13.66;85.25;;;;;
2023/07/06 22:33:44;;;;;;;10.1;6.6;;;;;;;13.54;85.8;;;;;
2023/07/06 22:43:44;;;;;;;10.1;6.6;;;;;;;13.45;85.93;;;;;
2023/07/06 22:54:45;;;;;;;10.1;6.6;;;;;;;13.33;85.75;;;;;
2023/07/06 23:04:44;;;;;;;12.4;9.3;;;;;;;13.28;86.19;;;;;
2023/07/06 23:14:44;;;;;;;12.4;9.3;;;;;;;13.24;86.18;;;;;
2023/07/06 23:24:44;;;;;;;12.4;9.3;;;;;;;13.1;87.22;;;;;
2023/07/06 23:35:45;;;;;;;11.4;8.4;;;;;;;13.03;87.13;;;;;
2023/07/06 23:46:45;;;;;;;11.4;8.4;;;;;;;12.89;86.15;;;;;
2023/07/06 23:56:44;;;;;;;11.4;8.4;;;;;;;12.78;86.09;;;;;
